createdAt,value
2018-01-21T00:01:31.698Z,3.80
2018-01-21T00:04:00.055Z,4.55
2018-01-21T00:06:27.615Z,4.50
2018-01-21T00:08:55.210Z,3.95
2018-01-21T00:11:22.765Z,4.57
2018-01-21T00:13:51.408Z,4.25
2018-01-21T00:16:18.977Z,4.22
2018-01-21T00:18:47.339Z,4.80
2018-01-21T00:21:14.894Z,4.32
2018-01-21T00:23:42.461Z,5.70
2018-01-21T00:26:10.267Z,5.72
2018-01-21T00:28:37.831Z,5.00
2018-01-21T00:31:05.529Z,5.10
2018-01-21T00:33:33.094Z,5.70
2018-01-21T00:36:00.678Z,4.97
2018-01-21T00:38:29.053Z,4.80
2018-01-21T00:40:57.378Z,6.15
2018-01-21T00:43:25.040Z,5.37
2018-01-21T00:45:52.602Z,5.78
2018-01-21T00:48:20.179Z,6.00
2018-01-21T00:50:47.786Z,5.55
2018-01-21T00:53:16.169Z,5.85
2018-01-21T00:55:43.790Z,5.53
2018-01-21T00:58:11.475Z,5.35
2018-01-21T01:00:39.900Z,6.07
2018-01-21T01:03:07.454Z,5.93
2018-01-21T01:05:35.046Z,6.57
2018-01-21T01:08:02.910Z,6.07
2018-01-21T01:10:30.519Z,6.32
2018-01-21T01:12:58.099Z,5.87
2018-01-21T01:15:25.673Z,7.07
2018-01-21T01:17:53.274Z,5.45
2018-01-21T01:20:21.594Z,5.50
2018-01-21T01:22:49.177Z,5.57
2018-01-21T01:25:16.762Z,5.30
2018-01-21T01:27:45.114Z,4.25
2018-01-21T01:30:12.746Z,4.10
2018-01-21T01:32:40.330Z,4.22
2018-01-21T01:35:07.917Z,4.82
2018-01-21T01:37:36.270Z,4.68
2018-01-21T01:40:03.862Z,3.72
2018-01-21T01:42:31.417Z,4.40
2018-01-21T01:44:59.754Z,4.43
2018-01-21T01:47:27.338Z,4.25
2018-01-21T01:49:55.658Z,3.95
2018-01-21T01:52:23.238Z,4.30
2018-01-21T01:54:50.790Z,3.62
2018-01-21T01:57:18.374Z,4.20
2018-01-21T01:59:45.934Z,4.53
2018-01-21T02:02:13.501Z,4.55
2018-01-21T02:04:41.101Z,4.28
2018-01-21T02:07:08.663Z,4.00
2018-01-21T02:09:36.225Z,3.50
2018-01-21T02:12:03.806Z,3.95
2018-01-21T02:14:31.381Z,4.20
2018-01-21T02:16:58.973Z,4.25
2018-01-21T02:19:26.541Z,4.10
2018-01-21T02:21:54.140Z,4.18
2018-01-21T02:24:21.693Z,3.78
2018-01-21T02:26:49.243Z,3.90
2018-01-21T02:29:16.810Z,4.87
2018-01-21T02:31:44.394Z,4.00
2018-01-21T02:34:11.973Z,3.55
2018-01-21T02:36:40.366Z,4.20
2018-01-21T02:39:08.050Z,3.70
2018-01-21T02:41:35.618Z,4.60
2018-01-21T02:44:03.172Z,4.28
2018-01-21T02:46:30.754Z,3.70
2018-01-21T02:48:58.306Z,3.70
2018-01-21T02:51:25.905Z,3.45
2018-01-21T02:53:54.233Z,3.00
2018-01-21T02:56:21.790Z,2.92
2018-01-21T02:58:49.379Z,3.28
2018-01-21T03:01:16.932Z,3.50
2018-01-21T03:03:44.642Z,3.80
2018-01-21T03:06:12.190Z,3.20
2018-01-21T03:08:39.754Z,3.65
2018-01-21T03:11:07.346Z,3.10
2018-01-21T03:13:34.942Z,2.75
2018-01-21T03:16:02.647Z,3.00
2018-01-21T03:18:30.198Z,2.80
2018-01-21T03:20:57.755Z,2.28
2018-01-21T03:23:25.334Z,2.90
2018-01-21T03:25:53.015Z,2.50
2018-01-21T03:28:20.574Z,2.55
2018-01-21T03:30:48.122Z,2.30
2018-01-21T03:33:15.743Z,2.62
2018-01-21T03:35:43.338Z,2.20
2018-01-21T03:38:10.895Z,2.75
2018-01-21T03:40:38.450Z,3.42
2018-01-21T03:43:06.042Z,3.33
2018-01-21T03:45:33.626Z,3.20
2018-01-21T03:48:01.969Z,3.15
2018-01-21T03:50:29.522Z,3.03
2018-01-21T03:52:57.102Z,2.72
2018-01-21T03:55:24.681Z,2.30
2018-01-21T03:57:53.042Z,3.50
2018-01-21T04:00:20.802Z,2.35
2018-01-21T04:02:48.350Z,2.92
2018-01-21T04:05:15.905Z,3.53
2018-01-21T04:07:43.482Z,2.83
2018-01-21T04:10:11.802Z,3.17
2018-01-21T04:12:39.382Z,2.70
2018-01-21T04:15:06.962Z,2.83
2018-01-21T04:17:34.551Z,2.95
2018-01-21T04:20:02.122Z,3.75
2018-01-21T04:22:29.678Z,2.92
2018-01-21T04:24:57.258Z,4.15
2018-01-21T04:27:24.818Z,2.83
2018-01-21T04:29:52.412Z,3.03
2018-01-21T04:32:19.975Z,3.40
2018-01-21T04:34:47.521Z,3.00
2018-01-21T04:37:15.106Z,2.85
2018-01-21T04:39:43.453Z,3.10
2018-01-21T04:42:11.181Z,3.47
2018-01-21T04:44:38.738Z,3.10
2018-01-21T04:47:06.337Z,3.45
2018-01-21T04:49:33.922Z,3.30
2018-01-21T04:52:02.276Z,2.50
2018-01-21T04:54:29.865Z,3.03
2018-01-21T04:56:58.186Z,3.50
2018-01-21T04:59:25.765Z,3.35
2018-01-21T05:01:53.386Z,3.20
2018-01-21T05:04:21.085Z,3.08
2018-01-21T05:06:49.414Z,3.45
2018-01-21T05:09:16.966Z,2.80
2018-01-21T05:11:44.550Z,3.03
2018-01-21T05:14:12.109Z,3.15
2018-01-21T05:16:39.688Z,3.83
2018-01-21T05:19:07.249Z,3.40
2018-01-21T05:21:34.842Z,3.85
2018-01-21T05:24:03.162Z,4.18
2018-01-21T05:26:30.826Z,4.70
2018-01-21T05:28:58.430Z,4.82
2018-01-21T05:31:26.754Z,4.57
2018-01-21T05:33:54.574Z,4.78
2018-01-21T05:36:22.125Z,4.28
2018-01-21T05:38:50.485Z,3.95
2018-01-21T05:41:18.202Z,5.12
2018-01-21T05:43:45.766Z,4.05
2018-01-21T05:46:13.350Z,3.85
2018-01-21T05:48:40.910Z,5.20
2018-01-21T05:51:08.458Z,4.85
2018-01-21T05:53:36.042Z,3.85
2018-01-21T05:56:03.612Z,3.30
2018-01-21T05:58:31.207Z,3.10
2018-01-21T06:00:58.758Z,3.08
2018-01-21T06:03:26.302Z,3.30
2018-01-21T06:05:54.643Z,3.50
2018-01-21T06:08:22.246Z,3.25
2018-01-21T06:10:49.945Z,3.17
2018-01-21T06:13:17.536Z,3.45
2018-01-21T06:15:45.135Z,3.53
2018-01-21T06:18:12.690Z,4.25
2018-01-21T06:20:40.242Z,3.50
2018-01-21T06:23:08.586Z,3.53
2018-01-21T06:25:36.141Z,3.20
2018-01-21T06:28:03.726Z,3.70
2018-01-21T06:30:32.049Z,3.55
2018-01-21T06:32:59.630Z,3.12
2018-01-21T06:35:27.214Z,3.95
2018-01-21T06:37:55.617Z,3.45
2018-01-21T06:40:23.198Z,3.10
2018-01-21T06:42:50.846Z,3.80
2018-01-21T06:45:18.422Z,3.25
2018-01-21T06:47:45.990Z,4.00
2018-01-21T06:50:13.590Z,3.80
2018-01-21T06:52:41.922Z,3.35
2018-01-21T06:55:09.477Z,3.92
2018-01-21T06:57:37.119Z,4.00
2018-01-21T07:00:04.659Z,3.75
2018-01-21T07:02:32.245Z,3.30
2018-01-21T07:04:59.818Z,3.25
2018-01-21T07:07:27.370Z,3.22
2018-01-21T07:09:55.002Z,3.50
2018-01-21T07:12:22.551Z,3.70
2018-01-21T07:14:50.179Z,3.37
2018-01-21T07:17:17.772Z,4.18
2018-01-21T07:19:45.474Z,3.90
2018-01-21T07:22:13.068Z,3.40
2018-01-21T07:24:40.614Z,3.60
2018-01-21T07:27:08.177Z,3.35
2018-01-21T07:29:35.810Z,3.42
2018-01-21T07:32:03.403Z,3.95
2018-01-21T07:34:31.883Z,4.45
2018-01-21T07:36:59.449Z,3.83
2018-01-21T07:39:27.898Z,4.22
2018-01-21T07:41:55.590Z,4.90
2018-01-21T07:44:23.974Z,3.70
2018-01-21T07:46:52.329Z,3.95
2018-01-21T07:49:19.892Z,3.17
2018-01-21T07:51:47.715Z,4.15
2018-01-21T07:54:15.267Z,4.10
2018-01-21T07:56:42.828Z,3.72
2018-01-21T07:59:10.450Z,3.83
2018-01-21T08:01:38.778Z,3.67
2018-01-21T08:04:06.543Z,3.35
2018-01-21T08:06:34.103Z,3.55
2018-01-21T08:09:01.671Z,2.90
2018-01-21T08:11:29.248Z,3.37
2018-01-21T08:13:56.952Z,3.12
2018-01-21T08:16:24.562Z,3.85
2018-01-21T08:18:52.387Z,3.12
2018-01-21T08:21:20.019Z,4.82
2018-01-21T08:23:47.598Z,4.45
2018-01-21T08:26:15.146Z,3.87
2018-01-21T08:28:42.730Z,3.42
2018-01-21T08:31:10.307Z,3.42
2018-01-21T08:33:37.930Z,3.20
2018-01-21T08:36:11.194Z,15.10
2018-01-21T08:38:45.095Z,2.72
2018-01-21T08:41:19.032Z,2.83
2018-01-21T08:43:46.615Z,4.70
2018-01-21T08:46:14.222Z,4.50
2018-01-21T08:48:42.554Z,3.60
2018-01-21T08:51:10.171Z,5.62
2018-01-21T08:53:37.926Z,2.90
2018-01-21T08:56:06.261Z,3.80
2018-01-21T08:58:33.874Z,4.10
2018-01-21T09:01:01.470Z,4.30
2018-01-21T09:03:29.109Z,4.15
2018-01-21T09:05:56.698Z,3.50
2018-01-21T09:08:24.362Z,3.80
2018-01-21T09:10:51.983Z,3.55
2018-01-21T09:13:19.542Z,3.15
2018-01-21T09:15:47.090Z,3.10
2018-01-21T09:18:14.793Z,2.95
2018-01-21T09:20:42.351Z,4.07
2018-01-21T09:23:10.025Z,3.95
2018-01-21T09:25:37.590Z,3.47
2018-01-21T09:28:05.142Z,4.18
2018-01-21T09:30:32.718Z,3.72
2018-01-21T09:33:01.060Z,3.00
2018-01-21T09:35:28.793Z,3.60
2018-01-21T09:37:56.452Z,3.05
2018-01-21T09:40:24.039Z,4.00
2018-01-21T09:42:51.591Z,4.15
2018-01-21T09:45:19.162Z,3.87
2018-01-21T09:47:46.763Z,4.57
2018-01-21T09:50:15.089Z,4.07
2018-01-21T09:52:42.674Z,4.75
2018-01-21T09:55:10.265Z,3.37
2018-01-21T09:57:38.630Z,3.75
2018-01-21T10:00:07.071Z,3.55
2018-01-21T10:02:34.685Z,4.10
2018-01-21T10:05:02.285Z,3.25
2018-01-21T10:07:29.855Z,3.28
2018-01-21T10:09:57.421Z,4.03
2018-01-21T10:12:25.026Z,4.45
2018-01-21T10:14:52.606Z,3.40
2018-01-21T10:17:20.213Z,3.83
2018-01-21T10:19:47.778Z,3.97
2018-01-21T10:22:16.230Z,3.42
2018-01-21T10:24:43.859Z,4.22
2018-01-21T10:27:11.414Z,3.53
2018-01-21T10:29:39.031Z,4.50
2018-01-21T10:32:07.383Z,3.40
2018-01-21T10:34:34.945Z,2.90
2018-01-21T10:37:02.618Z,3.40
2018-01-21T10:39:30.184Z,2.97
2018-01-21T10:41:58.540Z,3.22
2018-01-21T10:44:26.107Z,3.00
2018-01-21T10:46:53.711Z,2.83
2018-01-21T10:49:21.278Z,3.03
2018-01-21T10:51:48.835Z,3.33
2018-01-21T10:54:16.426Z,3.20
2018-01-21T10:56:43.986Z,2.30
2018-01-21T10:59:11.595Z,3.00
2018-01-21T11:01:39.164Z,3.22
2018-01-21T11:04:06.739Z,3.47
2018-01-21T11:06:34.338Z,3.55
2018-01-21T11:09:01.898Z,3.62
2018-01-21T11:11:29.487Z,3.08
2018-01-21T11:13:57.047Z,2.85
2018-01-21T11:16:24.651Z,2.60
2018-01-21T11:18:52.285Z,3.47
2018-01-21T11:21:19.848Z,2.83
2018-01-21T11:23:47.411Z,3.65
2018-01-21T11:26:15.012Z,3.25
2018-01-21T11:28:42.566Z,3.45
2018-01-21T11:31:10.180Z,3.55
2018-01-21T11:33:37.728Z,2.75
2018-01-21T11:36:05.320Z,3.22
2018-01-21T11:38:32.966Z,2.42
2018-01-21T11:41:00.543Z,2.85
2018-01-21T11:43:28.139Z,3.17
2018-01-21T11:45:56.487Z,3.70
2018-01-21T11:48:24.102Z,3.00
2018-01-21T11:50:51.661Z,3.15
2018-01-21T11:53:19.234Z,2.90
2018-01-21T11:55:46.826Z,2.10
2018-01-21T11:58:14.395Z,2.10
2018-01-21T12:00:42.016Z,2.92
2018-01-21T12:03:09.573Z,2.40
2018-01-21T12:05:37.170Z,2.20
2018-01-21T12:08:04.773Z,3.22
2018-01-21T12:10:32.354Z,2.20
2018-01-21T12:12:59.925Z,1.95
2018-01-21T12:15:27.523Z,2.37
2018-01-21T12:17:55.862Z,2.35
2018-01-21T12:20:23.479Z,2.35
2018-01-21T12:22:51.054Z,2.20
2018-01-21T12:25:18.639Z,2.25
2018-01-21T12:27:46.238Z,2.00
2018-01-21T12:30:14.637Z,2.20
2018-01-21T12:32:42.270Z,2.00
2018-01-21T12:35:10.617Z,2.40
2018-01-21T12:37:38.195Z,2.00
2018-01-21T12:40:05.890Z,2.20
2018-01-21T12:42:33.555Z,2.20
2018-01-21T12:45:01.156Z,2.37
2018-01-21T12:47:28.750Z,2.10
2018-01-21T12:49:57.289Z,2.00
2018-01-21T12:52:24.858Z,2.78
2018-01-21T12:54:52.442Z,2.60
2018-01-21T12:57:20.825Z,1.90
2018-01-21T12:59:49.230Z,1.95
2018-01-21T13:02:16.822Z,2.53
2018-01-21T13:04:44.447Z,2.40
2018-01-21T13:07:12.126Z,1.85
2018-01-21T13:09:39.696Z,2.50
2018-01-21T13:12:07.276Z,1.47
2018-01-21T13:14:34.990Z,1.67
2018-01-21T13:17:02.628Z,1.60
2018-01-21T13:19:31.059Z,2.20
2018-01-21T13:21:58.652Z,1.70
2018-01-21T13:24:26.214Z,2.22
2018-01-21T13:26:54.597Z,1.90
2018-01-21T13:29:22.962Z,1.73
2018-01-21T13:31:51.343Z,2.40
2018-01-21T13:34:19.690Z,1.75
2018-01-21T13:36:47.290Z,2.27
2018-01-21T13:39:15.802Z,1.77
2018-01-21T13:41:43.373Z,2.15
2018-01-21T13:44:11.050Z,2.28
2018-01-21T13:46:38.647Z,1.70
2018-01-21T13:49:07.033Z,2.07
2018-01-21T13:51:35.366Z,1.65
2018-01-21T13:54:03.002Z,2.05
2018-01-21T13:56:30.610Z,2.33
2018-01-21T13:58:58.949Z,2.62
2018-01-21T14:01:26.543Z,2.33
2018-01-21T14:03:54.096Z,2.70
2018-01-21T14:06:21.710Z,2.30
2018-01-21T14:08:49.278Z,2.20
2018-01-21T14:11:16.854Z,2.65
2018-01-21T14:13:44.708Z,2.25
2018-01-21T14:16:12.283Z,2.17
2018-01-21T14:18:39.890Z,2.03
2018-01-21T14:21:08.242Z,2.10
2018-01-21T14:23:35.838Z,2.00
2018-01-21T14:26:03.507Z,1.80
2018-01-21T14:28:31.072Z,2.20
2018-01-21T14:30:58.672Z,2.10
2018-01-21T14:33:26.222Z,2.20
2018-01-21T14:35:53.923Z,1.80
2018-01-21T14:38:21.515Z,2.20
2018-01-21T14:40:49.100Z,2.08
2018-01-21T14:43:16.691Z,3.37
2018-01-21T14:45:45.150Z,2.17
2018-01-21T14:48:12.758Z,1.85
2018-01-21T14:50:40.359Z,1.95
2018-01-21T14:53:07.910Z,1.62
2018-01-21T14:55:35.622Z,1.60
2018-01-21T14:58:03.191Z,1.80
2018-01-21T15:00:30.771Z,2.00
2018-01-21T15:02:58.386Z,1.90
2018-01-21T15:05:26.711Z,1.48
2018-01-21T15:07:54.393Z,1.80
2018-01-21T15:10:21.971Z,2.17
2018-01-21T15:12:50.614Z,1.80
2018-01-21T15:15:18.282Z,1.35
2018-01-21T15:17:45.862Z,1.90
2018-01-21T15:20:14.237Z,1.92
2018-01-21T15:22:41.802Z,2.22
2018-01-21T15:25:10.226Z,2.25
2018-01-21T15:27:37.799Z,2.30
2018-01-21T15:30:05.418Z,2.28
2018-01-21T15:32:33.934Z,1.92
2018-01-21T15:35:01.526Z,2.10
2018-01-21T15:37:29.094Z,2.45
2018-01-21T15:39:56.818Z,2.20
2018-01-21T15:42:24.510Z,2.72
2018-01-21T15:44:52.142Z,2.25
2018-01-21T15:47:19.699Z,2.25
2018-01-21T15:49:47.290Z,1.98
2018-01-21T15:52:14.858Z,2.37
2018-01-21T15:54:43.358Z,2.53
2018-01-21T15:57:11.694Z,1.92
2018-01-21T15:59:39.273Z,1.60
2018-01-21T16:02:06.996Z,1.55
2018-01-21T16:04:34.563Z,1.20
2018-01-21T16:07:02.259Z,1.42
2018-01-21T16:09:30.598Z,1.33
2018-01-21T16:11:58.276Z,1.67
2018-01-21T16:14:25.843Z,1.70
2018-01-21T16:16:53.411Z,2.58
2018-01-21T16:19:21.778Z,1.90
2018-01-21T16:21:49.581Z,2.12
2018-01-21T16:24:17.178Z,1.75
2018-01-21T16:26:44.777Z,1.75
2018-01-21T16:29:13.311Z,1.92
2018-01-21T16:31:40.921Z,1.70
2018-01-21T16:34:09.404Z,1.73
2018-01-21T16:36:37.923Z,2.10
2018-01-21T16:39:05.574Z,2.35
2018-01-21T16:41:33.273Z,2.10
2018-01-21T16:44:00.894Z,2.45
2018-01-21T16:46:28.534Z,2.30
2018-01-21T16:48:56.855Z,2.70
2018-01-21T16:51:24.551Z,2.65
2018-01-21T16:53:52.911Z,2.55
2018-01-21T16:56:20.518Z,2.80
2018-01-21T16:58:48.091Z,3.20
2018-01-21T17:01:15.730Z,2.75
2018-01-21T17:03:43.292Z,2.60
2018-01-21T17:06:10.856Z,3.03
2018-01-21T17:08:38.496Z,3.00
2018-01-21T17:11:06.887Z,3.03
2018-01-21T17:13:34.582Z,3.30
2018-01-21T17:16:02.166Z,3.30
2018-01-21T17:18:29.884Z,3.20
2018-01-21T17:20:57.517Z,3.10
2018-01-21T17:23:25.874Z,3.37
2018-01-21T17:25:53.502Z,3.30
2018-01-21T17:28:21.203Z,3.20
2018-01-21T17:30:48.830Z,3.70
2018-01-21T17:33:16.470Z,3.20
2018-01-21T17:35:44.064Z,3.25
2018-01-21T17:38:11.669Z,3.22
2018-01-21T17:40:40.017Z,3.90
2018-01-21T17:43:07.577Z,3.78
2018-01-21T17:45:35.940Z,3.30
2018-01-21T17:48:03.519Z,3.78
2018-01-21T17:50:31.890Z,3.28
2018-01-21T17:53:00.319Z,3.85
2018-01-21T17:55:27.884Z,4.00
2018-01-21T17:57:55.505Z,2.05
2018-01-21T18:00:23.103Z,3.42
2018-01-21T18:02:50.694Z,3.50
2018-01-21T18:05:18.312Z,2.97
2018-01-21T18:07:46.047Z,4.03
2018-01-21T18:10:13.607Z,3.00
2018-01-21T18:12:41.322Z,3.83
2018-01-21T18:15:08.943Z,4.20
2018-01-21T18:17:36.519Z,3.40
2018-01-21T18:20:04.133Z,4.15
2018-01-21T18:22:32.479Z,3.20
2018-01-21T18:25:00.052Z,3.83
2018-01-21T18:27:27.660Z,3.70
2018-01-21T18:29:55.247Z,2.30
2018-01-21T18:32:22.851Z,3.40
2018-01-21T18:34:51.345Z,2.87
2018-01-21T18:37:18.942Z,3.70
2018-01-21T18:39:46.507Z,2.95
2018-01-21T18:42:14.081Z,5.35
2018-01-21T18:44:41.674Z,4.70
2018-01-21T18:47:09.242Z,4.35
2018-01-21T18:49:36.830Z,3.58
2018-01-21T18:52:04.414Z,4.57
2018-01-21T18:54:32.046Z,3.00
2018-01-21T18:56:59.587Z,4.10
2018-01-21T18:59:27.174Z,5.30
2018-01-21T19:01:54.777Z,2.70
2018-01-21T19:04:23.115Z,4.30
2018-01-21T19:06:50.763Z,3.95
2018-01-21T19:09:18.334Z,2.80
2018-01-21T19:11:45.899Z,4.97
2018-01-21T19:14:13.522Z,4.68
2018-01-21T19:16:41.082Z,5.05
2018-01-21T19:19:08.703Z,4.78
2018-01-21T19:21:37.112Z,4.43
2018-01-21T19:24:04.730Z,4.45
2018-01-21T19:26:32.305Z,4.32
2018-01-21T19:29:00.651Z,4.70
2018-01-21T19:31:29.918Z,4.97
2018-01-21T19:33:57.507Z,4.68
2018-01-21T19:36:25.133Z,4.62
2018-01-21T19:42:18.331Z,5.20
2018-01-21T19:44:45.911Z,4.43
2018-01-21T19:47:13.509Z,4.37
2018-01-21T19:49:41.071Z,4.93
2018-01-21T19:52:08.851Z,5.18
2018-01-21T19:54:36.431Z,4.15
2018-01-21T19:57:04.004Z,4.40
2018-01-21T19:59:32.779Z,4.45
2018-01-21T20:02:00.407Z,4.28
2018-01-21T20:04:28.020Z,5.37
2018-01-21T20:06:55.587Z,5.20
2018-01-21T20:09:23.994Z,5.28
2018-01-21T20:11:51.574Z,3.00
2018-01-21T20:14:19.126Z,4.28
2018-01-21T20:16:46.835Z,4.12
2018-01-21T20:19:14.586Z,4.20
2018-01-21T20:21:42.190Z,4.35
2018-01-21T20:24:09.766Z,4.68
2018-01-21T20:26:37.376Z,4.22
2018-01-21T20:29:05.043Z,6.32
2018-01-21T20:31:32.663Z,6.15
2018-01-21T20:34:00.320Z,4.00
2018-01-21T20:36:28.135Z,4.35
2018-01-21T20:38:56.507Z,7.25
2018-01-21T20:41:25.058Z,7.07
2018-01-21T20:43:52.695Z,7.00
2018-01-21T20:46:20.262Z,7.40
2018-01-21T20:48:47.847Z,6.90
2018-01-21T20:51:21.102Z,6.65
2018-01-21T20:53:54.438Z,8.65
2018-01-21T20:56:22.092Z,5.90
2018-01-21T20:58:49.654Z,6.50
2018-01-21T21:01:17.520Z,8.05
2018-01-21T21:03:45.106Z,6.80
2018-01-21T21:06:13.482Z,6.25
2018-01-21T21:08:41.824Z,2.15
2018-01-21T21:11:09.425Z,6.12
2018-01-21T21:13:36.998Z,2.83
2018-01-21T21:16:04.595Z,7.78
2018-01-21T21:18:32.220Z,5.78
2018-01-21T21:20:59.794Z,6.53
2018-01-21T21:23:27.351Z,6.90
2018-01-21T21:25:54.942Z,6.68
2018-01-21T21:28:22.512Z,6.40
2018-01-21T21:30:50.134Z,6.25
2018-01-21T21:33:17.722Z,4.65
2018-01-21T21:35:46.134Z,5.05
2018-01-21T21:38:13.890Z,1.58
2018-01-21T21:40:41.450Z,4.43
2018-01-21T21:43:09.939Z,4.40
2018-01-21T21:45:37.551Z,6.70
2018-01-21T21:48:05.363Z,7.37
2018-01-21T21:50:32.949Z,6.90
2018-01-21T21:53:00.507Z,7.10
2018-01-21T21:55:28.114Z,6.55
2018-01-21T21:57:56.478Z,6.85
2018-01-21T22:00:24.095Z,7.72
2018-01-21T22:02:51.669Z,6.50
2018-01-21T22:05:19.230Z,8.13
2018-01-21T22:07:46.811Z,7.15
2018-01-21T22:10:14.405Z,7.50
2018-01-21T22:12:42.782Z,6.60
2018-01-21T22:15:11.110Z,6.50
2018-01-21T22:17:38.720Z,6.20
2018-01-21T22:20:07.034Z,5.85
2018-01-21T22:22:34.760Z,1.45
2018-01-21T22:25:02.319Z,3.47
2018-01-21T22:27:29.891Z,4.37
2018-01-21T22:29:57.492Z,5.60
2018-01-21T22:32:25.076Z,4.70
2018-01-21T22:34:53.454Z,5.97
2018-01-21T22:37:21.783Z,4.20
2018-01-21T22:39:49.342Z,5.55
2018-01-21T22:42:16.923Z,3.05
2018-01-21T22:44:44.482Z,6.78
2018-01-21T22:47:12.091Z,2.83
2018-01-21T22:49:39.646Z,5.18
2018-01-21T22:52:07.231Z,6.50
2018-01-21T22:54:34.811Z,4.00
2018-01-21T22:57:02.400Z,3.12
2018-01-21T22:59:30.726Z,4.78
2018-01-21T23:01:58.334Z,5.82
2018-01-21T23:04:26.749Z,7.10
2018-01-21T23:06:54.413Z,5.25
2018-01-21T23:09:21.995Z,7.30
2018-01-21T23:11:49.600Z,3.17
2018-01-21T23:14:18.111Z,7.57
2018-01-21T23:16:45.742Z,8.27
2018-01-21T23:19:14.126Z,7.82
2018-01-21T23:21:42.473Z,6.00
2018-01-21T23:24:10.034Z,6.95
2018-01-21T23:26:37.647Z,5.20
2018-01-21T23:29:05.230Z,6.68
2018-01-21T23:31:32.844Z,4.90
2018-01-21T23:34:00.516Z,6.10
2018-01-21T23:36:28.086Z,7.10
2018-01-21T23:38:55.770Z,6.62
2018-01-21T23:41:23.330Z,6.62
2018-01-21T23:43:50.938Z,6.68
2018-01-21T23:46:18.754Z,6.28
2018-01-21T23:48:46.342Z,6.30
2018-01-21T23:51:14.677Z,7.03
2018-01-21T23:53:42.270Z,6.15
2018-01-21T23:56:09.819Z,6.57
2018-01-21T23:58:37.370Z,6.85
